createdAt,value
2022-10-31T00:01:11.088Z,94.75
2022-10-31T00:06:42.787Z,94.31
2022-10-31T00:12:14.559Z,95.17
2022-10-31T00:17:46.231Z,95.71
2022-10-31T00:23:22.363Z,95.46
2022-10-31T00:28:54.070Z,96.06
2022-10-31T00:34:26.054Z,96.54
2022-10-31T00:39:57.491Z,96.4
2022-10-31T00:45:29.246Z,96.5
2022-10-31T00:51:01.026Z,96.13
2022-10-31T00:56:32.797Z,96.37
2022-10-31T01:02:04.679Z,97.07
2022-10-31T01:07:36.139Z,97.15
2022-10-31T01:13:07.858Z,98.28
2022-10-31T01:18:39.599Z,97.45
2022-10-31T01:24:17.700Z,98.33
2022-10-31T01:29:49.438Z,98.39
2022-10-31T01:35:21.151Z,98.31
2022-10-31T01:40:52.705Z,98.6
2022-10-31T01:46:24.601Z,98.82
2022-10-31T01:51:56.327Z,98.81
2022-10-31T01:57:28.049Z,98.25
2022-10-31T02:03:00.496Z,99.37
2022-10-31T02:08:31.513Z,100.0
2022-10-31T02:14:03.209Z,100.0
2022-10-31T02:19:34.958Z,100.0
2022-10-31T02:25:11.030Z,99.74
2022-10-31T02:30:42.765Z,99.43
2022-10-31T02:36:14.580Z,99.84
2022-10-31T02:41:46.211Z,100.0
2022-10-31T02:47:17.978Z,100.0
2022-10-31T02:52:49.612Z,100.0
2022-10-31T02:58:21.403Z,100.0
2022-10-31T03:03:53.154Z,100.0
2022-10-31T03:09:24.886Z,100.0
2022-10-31T03:14:56.510Z,100.0
2022-10-31T03:20:28.227Z,100.0
2022-10-31T03:26:06.393Z,100.0
2022-10-31T03:31:38.142Z,100.0
2022-10-31T03:37:09.894Z,100.0
2022-10-31T03:42:41.590Z,100.0
2022-10-31T03:48:13.310Z,100.0
2022-10-31T03:53:45.146Z,100.0
2022-10-31T03:59:16.675Z,100.0
2022-10-31T04:04:48.538Z,100.0
2022-10-31T04:10:20.219Z,100.0
2022-10-31T04:15:51.912Z,100.0
2022-10-31T04:21:23.691Z,100.0
2022-10-31T04:26:59.734Z,100.0
2022-10-31T04:32:31.471Z,100.0
2022-10-31T04:38:03.246Z,100.0
2022-10-31T04:43:34.802Z,100.0
2022-10-31T04:49:06.723Z,100.0
2022-10-31T04:54:38.362Z,100.0
2022-10-31T05:00:10.102Z,100.0
2022-10-31T05:05:41.858Z,100.0
2022-10-31T05:11:13.546Z,100.0
2022-10-31T05:16:45.278Z,100.0
2022-10-31T05:22:16.954Z,100.0
2022-10-31T05:27:55.120Z,100.0
2022-10-31T05:33:26.883Z,100.0
2022-10-31T05:38:58.535Z,100.0
2022-10-31T05:44:30.162Z,100.0
2022-10-31T05:50:02.055Z,100.0
2022-10-31T05:55:33.726Z,100.0
2022-10-31T06:01:05.584Z,100.0
2022-10-31T06:06:37.083Z,99.76
2022-10-31T06:12:08.866Z,100.0
2022-10-31T06:17:40.684Z,100.0
2022-10-31T06:23:12.347Z,100.0
2022-10-31T06:28:50.434Z,100.0
2022-10-31T06:34:22.174Z,100.0
2022-10-31T06:39:53.975Z,100.0
2022-10-31T06:45:25.663Z,100.0
2022-10-31T06:50:59.990Z,100.0
2022-10-31T06:56:29.176Z,100.0
2022-10-31T07:02:00.972Z,100.0
2022-10-31T07:07:32.563Z,100.0
2022-10-31T07:13:04.251Z,100.0
2022-10-31T07:18:35.972Z,100.0
2022-10-31T07:24:07.699Z,100.0
2022-10-31T07:29:45.845Z,100.0
2022-10-31T07:35:17.571Z,100.0
2022-10-31T07:40:49.260Z,100.0
2022-10-31T07:46:20.983Z,100.0
2022-10-31T07:51:52.832Z,100.0
2022-10-31T07:57:25.928Z,100.0
2022-10-31T08:02:56.288Z,100.0
2022-10-31T08:08:27.849Z,100.0
2022-10-31T08:13:59.686Z,100.0
2022-10-31T08:19:31.320Z,100.0
2022-10-31T08:25:03.120Z,100.0
2022-10-31T08:30:39.180Z,100.0
2022-10-31T08:36:10.935Z,100.0
2022-10-31T08:41:42.632Z,100.0
2022-10-31T08:47:14.550Z,100.0
2022-10-31T08:53:06.065Z,100.0
2022-10-31T08:58:17.851Z,100.0
2022-10-31T09:03:49.509Z,100.0
2022-10-31T09:09:21.322Z,99.99
2022-10-31T09:14:53.006Z,99.39
2022-10-31T09:20:24.762Z,98.92
2022-10-31T09:25:56.522Z,98.29
2022-10-31T09:31:32.591Z,98.35
2022-10-31T09:37:04.358Z,98.85
2022-10-31T09:42:36.145Z,96.81
2022-10-31T09:48:07.775Z,96.65
2022-10-31T09:53:39.606Z,96.59
2022-10-31T09:59:11.231Z,96.82
2022-10-31T10:04:43.049Z,97.11
2022-10-31T10:10:14.673Z,96.54
2022-10-31T10:15:46.403Z,95.86
2022-10-31T10:21:18.122Z,95.37
2022-10-31T10:26:49.802Z,95.55
2022-10-31T10:32:26.012Z,94.08
2022-10-31T10:37:58.100Z,93.42
2022-10-31T10:43:29.427Z,94.17
2022-10-31T10:49:01.144Z,92.62
2022-10-31T10:54:32.925Z,93.04
2022-10-31T11:00:04.562Z,92.72
2022-10-31T11:05:36.268Z,92.45
2022-10-31T11:11:08.199Z,92.74
2022-10-31T11:16:41.789Z,92.8
2022-10-31T11:22:11.434Z,92.1
2022-10-31T11:27:43.186Z,90.93
2022-10-31T11:33:21.297Z,90.42
2022-10-31T11:38:52.873Z,90.94
2022-10-31T11:44:24.680Z,90.05
2022-10-31T11:49:56.439Z,88.5
2022-10-31T11:55:28.152Z,88.82
2022-10-31T12:00:59.868Z,88.96
2022-10-31T12:06:31.550Z,88.83
2022-10-31T12:12:03.342Z,88.89
2022-10-31T12:17:35.033Z,87.88
2022-10-31T12:23:06.862Z,87.09
2022-10-31T12:28:44.936Z,88.12
2022-10-31T12:34:14.524Z,87.17
2022-10-31T12:39:46.329Z,86.81
2022-10-31T12:45:17.997Z,87.17
2022-10-31T12:50:49.652Z,87.13
2022-10-31T12:56:21.636Z,87.35
2022-10-31T13:01:53.451Z,88.47
2022-10-31T13:07:24.901Z,87.91
2022-10-31T13:12:56.688Z,88.48
2022-10-31T13:18:28.332Z,88.68
2022-10-31T13:24:00.105Z,87.65
2022-10-31T13:29:33.252Z,87.58
2022-10-31T13:35:10.058Z,86.65
2022-10-31T13:40:41.735Z,87.03
2022-10-31T13:46:13.306Z,87.67
2022-10-31T13:51:45.201Z,87.91
2022-10-31T13:57:16.842Z,87.29
2022-10-31T14:02:48.534Z,87.86
2022-10-31T14:08:20.343Z,88.57
2022-10-31T14:13:52.065Z,89.28
2022-10-31T14:19:23.670Z,89.65
2022-10-31T14:24:55.435Z,88.65
2022-10-31T14:30:27.068Z,90.26
2022-10-31T14:36:03.243Z,91.55
2022-10-31T14:41:34.962Z,91.71
2022-10-31T14:47:06.743Z,91.25
2022-10-31T14:52:38.454Z,90.87
2022-10-31T14:58:10.138Z,90.42
2022-10-31T15:04:10.459Z,91.66
2022-10-31T15:09:13.686Z,92.58
2022-10-31T15:14:45.329Z,93.37
2022-10-31T15:20:17.152Z,93.86
2022-10-31T15:25:48.805Z,92.86
2022-10-31T15:31:20.537Z,92.8
2022-10-31T15:36:58.658Z,93.8
2022-10-31T15:42:30.313Z,94.41
2022-10-31T15:48:02.692Z,94.67
2022-10-31T15:53:33.801Z,94.95
2022-10-31T15:59:05.475Z,95.81
2022-10-31T16:04:37.216Z,96.42
2022-10-31T16:15:40.675Z,97.66
2022-10-31T16:21:12.424Z,97.32
2022-10-31T16:26:44.138Z,97.62
2022-10-31T16:32:15.730Z,97.92
2022-10-31T16:37:52.018Z,97.93
2022-10-31T16:43:23.728Z,98.65
2022-10-31T16:48:55.337Z,98.7
2022-10-31T16:54:27.154Z,98.77
2022-10-31T16:59:58.806Z,100.0
2022-10-31T17:05:30.763Z,100.0
2022-10-31T17:11:02.513Z,100.0
2022-10-31T17:16:34.211Z,100.0
2022-10-31T17:22:05.759Z,100.0
2022-10-31T17:27:37.556Z,100.0
2022-10-31T17:33:09.338Z,100.0
2022-10-31T17:38:45.426Z,99.1
2022-10-31T17:44:17.139Z,99.1
2022-10-31T17:49:48.807Z,99.9
2022-10-31T17:55:20.563Z,99.79
2022-10-31T18:00:52.558Z,100.0
2022-10-31T18:06:24.026Z,100.0
2022-10-31T18:11:55.726Z,100.0
2022-10-31T18:17:27.544Z,100.0
2022-10-31T18:22:59.190Z,100.0
2022-10-31T18:28:30.816Z,100.0
2022-10-31T18:34:02.610Z,100.0
2022-10-31T18:39:38.746Z,100.0
2022-10-31T18:45:30.495Z,100.0
2022-10-31T18:50:42.098Z,100.0
2022-10-31T18:56:13.897Z,100.0
2022-10-31T19:01:45.768Z,100.0
2022-10-31T19:07:17.579Z,100.0
2022-10-31T19:12:49.096Z,100.0
2022-10-31T19:18:20.829Z,100.0
2022-10-31T19:23:52.546Z,100.0
2022-10-31T19:29:24.302Z,100.0
2022-10-31T19:34:56.008Z,100.0
2022-10-31T19:40:34.114Z,100.0
2022-10-31T19:46:05.799Z,100.0
2022-10-31T19:51:37.681Z,100.0
2022-10-31T19:57:09.288Z,100.0
2022-10-31T20:02:41.032Z,100.0
2022-10-31T20:08:12.763Z,100.0
2022-10-31T20:13:44.501Z,100.0
2022-10-31T20:19:16.598Z,100.0
2022-10-31T20:24:48.066Z,100.0
2022-10-31T20:30:19.670Z,100.0
2022-10-31T20:35:51.432Z,100.0
2022-10-31T20:41:27.656Z,100.0
2022-10-31T20:46:59.174Z,100.0
2022-10-31T20:52:31.002Z,99.62
2022-10-31T20:58:02.639Z,99.02
2022-10-31T21:03:34.335Z,99.19
2022-10-31T21:09:06.018Z,98.75
2022-10-31T21:14:37.750Z,98.97
2022-10-31T21:20:09.523Z,100.0
2022-10-31T21:25:41.222Z,99.69
2022-10-31T21:31:13.100Z,100.0
2022-10-31T21:36:44.638Z,100.0
2022-10-31T21:42:22.182Z,100.0
2022-10-31T21:47:52.502Z,100.0
2022-10-31T21:53:24.289Z,100.0
2022-10-31T21:58:56.013Z,100.0
2022-10-31T22:04:27.750Z,100.0
2022-10-31T22:09:59.450Z,100.0
2022-10-31T22:15:31.134Z,100.0
2022-10-31T22:21:02.877Z,100.0
2022-10-31T22:26:34.684Z,100.0
2022-10-31T22:32:06.332Z,100.0
2022-10-31T22:37:38.105Z,100.0
2022-10-31T22:43:14.169Z,100.0
2022-10-31T22:48:45.937Z,100.0
2022-10-31T22:54:17.585Z,100.0
2022-10-31T22:59:49.371Z,100.0
2022-10-31T23:05:21.072Z,100.0
2022-10-31T23:10:52.818Z,100.0
2022-10-31T23:16:24.547Z,100.0
2022-10-31T23:21:56.443Z,100.0
2022-10-31T23:27:27.916Z,100.0
2022-10-31T23:32:59.988Z,100.0
2022-10-31T23:38:31.402Z,100.0
2022-10-31T23:44:07.665Z,100.0
2022-10-31T23:49:39.254Z,100.0
2022-10-31T23:55:10.955Z,100.0
